createdAt,value
2018-11-05T00:01:53.577Z,88.21
2018-11-05T00:04:28.877Z,89.19
2018-11-05T00:06:57.342Z,88.79
2018-11-05T00:09:25.740Z,88.44
2018-11-05T00:11:54.203Z,88.83
2018-11-05T00:14:22.632Z,90.37
2018-11-05T00:16:50.977Z,91.28
2018-11-05T00:19:19.356Z,90.64
2018-11-05T00:21:47.768Z,88.71
2018-11-05T00:24:16.274Z,88.86
2018-11-05T00:26:44.962Z,89.42
2018-11-05T00:29:13.832Z,91.20
2018-11-05T00:31:42.817Z,89.94
2018-11-05T00:34:11.418Z,90.65
2018-11-05T00:36:39.864Z,90.88
2018-11-05T00:39:10.488Z,90.83
2018-11-05T00:41:39.670Z,90.50
2018-11-05T00:44:08.303Z,89.97
2018-11-05T00:46:37.148Z,91.04
2018-11-05T00:49:06.093Z,90.56
2018-11-05T00:51:35.114Z,91.06
2018-11-05T00:54:03.814Z,90.91
2018-11-05T00:56:32.620Z,92.30
2018-11-05T00:59:01.102Z,92.17
2018-11-05T01:01:29.576Z,94.00
2018-11-05T01:03:58.373Z,92.98
2018-11-05T01:06:26.827Z,91.23
2018-11-05T01:08:55.233Z,91.93
2018-11-05T01:11:23.750Z,92.34
2018-11-05T01:13:52.192Z,92.39
2018-11-05T01:16:20.639Z,92.49
2018-11-05T01:18:49.223Z,92.31
2018-11-05T01:21:17.875Z,92.38
2018-11-05T01:23:46.634Z,92.44
2018-11-05T01:26:15.083Z,93.10
2018-11-05T01:28:43.593Z,92.06
2018-11-05T01:31:12.784Z,92.17
2018-11-05T01:33:41.204Z,94.12
2018-11-05T01:36:10.135Z,93.77
2018-11-05T01:38:38.665Z,92.22
2018-11-05T01:41:07.007Z,92.78
2018-11-05T01:43:35.462Z,92.78
2018-11-05T01:46:04.901Z,93.83
2018-11-05T01:48:33.321Z,91.66
2018-11-05T01:51:01.875Z,91.37
2018-11-05T01:53:30.614Z,92.18
2018-11-05T01:55:59.098Z,92.77
2018-11-05T01:58:27.866Z,93.70
2018-11-05T02:00:56.608Z,93.05
2018-11-05T02:03:25.546Z,93.18
2018-11-05T02:05:53.945Z,92.77
2018-11-05T02:08:22.387Z,92.44
2018-11-05T02:10:50.807Z,90.49
2018-11-05T02:13:19.286Z,89.61
2018-11-05T02:15:47.928Z,90.20
2018-11-05T02:18:16.279Z,90.30
2018-11-05T02:20:45.016Z,91.19
2018-11-05T02:23:13.454Z,92.04
2018-11-05T02:25:41.839Z,91.97
2018-11-05T02:28:10.267Z,91.85
2018-11-05T02:30:38.713Z,92.61
2018-11-05T02:33:07.337Z,92.56
2018-11-05T02:35:35.767Z,91.48
2018-11-05T02:38:04.581Z,91.26
2018-11-05T02:40:33.556Z,91.56
2018-11-05T02:43:02.577Z,91.01
2018-11-05T02:45:31.519Z,90.36
2018-11-05T02:48:00.379Z,90.80
2018-11-05T02:50:28.768Z,93.47
2018-11-05T02:52:57.168Z,92.32
2018-11-05T02:55:25.572Z,93.81
2018-11-05T02:57:54.237Z,93.47
2018-11-05T03:00:22.882Z,93.09
2018-11-05T03:02:51.772Z,92.56
2018-11-05T03:05:20.367Z,93.54
2018-11-05T03:07:49.417Z,92.46
2018-11-05T03:10:17.914Z,92.21
2018-11-05T03:12:47.290Z,92.35
2018-11-05T03:15:17.341Z,91.50
2018-11-05T03:17:45.981Z,92.35
2018-11-05T03:20:15.090Z,91.00
2018-11-05T03:22:44.184Z,91.05
2018-11-05T03:25:12.592Z,90.17
2018-11-05T03:27:41.311Z,91.33
2018-11-05T03:30:12.509Z,90.86
2018-11-05T03:32:40.931Z,92.11
2018-11-05T03:35:10.627Z,92.21
2018-11-05T03:37:40.072Z,92.61
2018-11-05T03:40:09.779Z,91.54
2018-11-05T03:42:39.282Z,91.85
2018-11-05T03:45:09.319Z,91.10
2018-11-05T03:47:37.876Z,91.57
2018-11-05T03:50:10.537Z,92.87
2018-11-05T03:52:38.988Z,93.90
2018-11-05T03:55:07.799Z,93.37
2018-11-05T03:57:36.391Z,93.97
2018-11-05T04:00:06.720Z,93.19
2018-11-05T04:02:35.751Z,93.61
2018-11-05T04:05:05.351Z,93.84
2018-11-05T04:07:34.067Z,94.28
2018-11-05T04:10:02.748Z,93.48
2018-11-05T04:12:31.269Z,94.30
2018-11-05T04:15:00.024Z,94.36
2018-11-05T04:17:28.575Z,94.99
2018-11-05T04:19:56.991Z,95.20
2018-11-05T04:22:25.666Z,94.78
2018-11-05T04:24:54.429Z,95.74
2018-11-05T04:27:23.057Z,95.89
2018-11-05T04:29:51.456Z,95.10
2018-11-05T04:32:20.405Z,94.63
2018-11-05T04:34:48.886Z,94.48
2018-11-05T04:37:17.343Z,94.13
2018-11-05T04:39:46.046Z,94.43
2018-11-05T04:42:14.472Z,94.15
2018-11-05T04:44:43.139Z,94.10
2018-11-05T04:47:11.524Z,94.20
2018-11-05T04:49:40.109Z,93.68
2018-11-05T04:52:08.560Z,94.37
2018-11-05T04:54:36.975Z,95.32
2018-11-05T04:57:05.456Z,94.73
2018-11-05T04:59:33.797Z,95.80
2018-11-05T05:02:02.209Z,96.85
2018-11-05T05:04:30.623Z,95.52
2018-11-05T05:07:00.188Z,95.65
2018-11-05T05:09:28.841Z,96.22
2018-11-05T05:11:57.272Z,96.30
2018-11-05T05:14:25.698Z,96.22
2018-11-05T05:16:54.480Z,96.05
2018-11-05T05:19:25.941Z,96.64
2018-11-05T05:21:54.452Z,96.78
2018-11-05T05:24:23.172Z,96.38
2018-11-05T05:26:51.799Z,96.90
2018-11-05T05:29:20.249Z,97.12
2018-11-05T05:31:48.618Z,97.87
2018-11-05T05:34:18.132Z,97.13
2018-11-05T05:36:46.563Z,97.57
2018-11-05T05:39:15.587Z,96.69
2018-11-05T05:41:44.425Z,95.38
2018-11-05T05:44:12.844Z,93.66
2018-11-05T05:46:41.379Z,94.18
2018-11-05T05:49:10.236Z,94.56
2018-11-05T05:51:39.119Z,95.47
2018-11-05T05:54:07.848Z,96.21
2018-11-05T05:56:37.025Z,95.88
2018-11-05T05:59:05.780Z,95.42
2018-11-05T06:01:34.213Z,95.79
2018-11-05T06:04:03.368Z,95.80
2018-11-05T06:06:32.243Z,95.29
2018-11-05T06:09:00.810Z,96.45
2018-11-05T06:11:29.722Z,96.92
2018-11-05T06:13:58.663Z,96.93
2018-11-05T06:16:27.147Z,97.32
2018-11-05T06:18:55.754Z,95.20
2018-11-05T06:21:25.509Z,94.82
2018-11-05T06:23:54.070Z,94.15
2018-11-05T06:26:22.648Z,94.68
2018-11-05T06:28:51.118Z,95.29
2018-11-05T06:31:21.533Z,95.32
2018-11-05T06:33:49.930Z,94.52
2018-11-05T06:36:18.397Z,94.65
2018-11-05T06:38:46.856Z,94.74
2018-11-05T06:41:15.244Z,94.44
2018-11-05T06:43:43.957Z,94.79
2018-11-05T06:46:12.866Z,94.75
2018-11-05T06:48:41.438Z,95.34
2018-11-05T06:51:10.136Z,93.82
2018-11-05T06:53:38.845Z,92.07
2018-11-05T06:56:07.531Z,92.09
2018-11-05T06:58:35.927Z,91.66
2018-11-05T07:01:04.993Z,91.15
2018-11-05T07:03:33.472Z,89.88
2018-11-05T07:06:02.342Z,89.83
2018-11-05T07:08:31.072Z,88.70
2018-11-05T07:10:59.889Z,88.33
2018-11-05T07:13:28.419Z,88.28
2018-11-05T07:15:56.966Z,89.92
2018-11-05T07:18:25.497Z,88.95
2018-11-05T07:20:53.962Z,88.45
2018-11-05T07:23:22.429Z,89.83
2018-11-05T07:25:51.080Z,89.54
2018-11-05T07:28:19.630Z,89.36
2018-11-05T07:30:47.977Z,91.01
2018-11-05T07:33:16.479Z,90.51
2018-11-05T07:35:44.773Z,90.20
2018-11-05T07:38:13.136Z,91.26
2018-11-05T07:40:41.598Z,92.76
2018-11-05T07:43:10.347Z,90.22
2018-11-05T07:45:38.939Z,90.95
2018-11-05T07:48:07.705Z,90.90
2018-11-05T07:50:36.141Z,90.23
2018-11-05T07:53:05.574Z,89.61
2018-11-05T07:55:34.059Z,86.96
2018-11-05T07:58:02.901Z,88.01
2018-11-05T08:00:36.980Z,85.86
2018-11-05T08:03:06.287Z,85.63
2018-11-05T08:05:34.754Z,84.96
2018-11-05T08:08:05.226Z,85.17
2018-11-05T08:10:33.624Z,84.63
2018-11-05T08:13:02.079Z,84.21
2018-11-05T08:15:30.603Z,85.03
2018-11-05T08:17:59.279Z,84.57
2018-11-05T08:20:27.774Z,85.05
2018-11-05T08:22:56.478Z,85.62
2018-11-05T08:25:25.149Z,86.24
2018-11-05T08:27:53.779Z,85.39
2018-11-05T08:30:23.366Z,83.67
2018-11-05T08:32:52.088Z,84.06
2018-11-05T08:35:20.533Z,82.25
2018-11-05T08:37:49.778Z,82.09
2018-11-05T08:40:21.673Z,85.06
2018-11-05T08:42:50.860Z,85.02
2018-11-05T08:45:20.467Z,84.65
2018-11-05T08:47:48.957Z,84.55
2018-11-05T08:50:18.356Z,85.02
2018-11-05T08:52:46.748Z,84.62
2018-11-05T08:55:19.088Z,84.30
2018-11-05T08:57:47.929Z,81.25
2018-11-05T09:00:23.079Z,81.41
2018-11-05T09:02:52.157Z,81.56
2018-11-05T09:05:21.086Z,80.87
2018-11-05T09:07:50.615Z,81.79
2018-11-05T09:10:19.093Z,81.77
2018-11-05T09:12:47.535Z,79.37
2018-11-05T09:15:18.161Z,78.50
2018-11-05T09:17:47.286Z,77.42
2018-11-05T09:20:16.561Z,78.84
2018-11-05T09:22:45.436Z,78.15
2018-11-05T09:25:14.685Z,77.61
2018-11-05T09:27:43.152Z,78.17
2018-11-05T09:30:16.590Z,76.36
2018-11-05T09:32:45.472Z,76.52
2018-11-05T09:35:14.066Z,77.78
2018-11-05T09:37:42.837Z,76.47
2018-11-05T09:40:14.167Z,75.52
2018-11-05T09:42:43.353Z,74.28
2018-11-05T09:45:15.050Z,73.88
2018-11-05T09:47:44.094Z,73.51
2018-11-05T09:50:12.710Z,73.49
2018-11-05T09:52:41.123Z,73.72
2018-11-05T09:55:11.018Z,72.40
2018-11-05T09:57:39.522Z,71.80
2018-11-05T10:00:12.048Z,72.45
2018-11-05T10:04:49.015Z,70.58
2018-11-05T10:07:17.265Z,72.33
2018-11-05T10:09:45.842Z,70.73
2018-11-05T10:12:14.307Z,73.20
2018-11-05T10:14:42.740Z,72.97
2018-11-05T10:17:11.484Z,72.06
2018-11-05T10:19:40.537Z,71.42
2018-11-05T10:22:09.311Z,73.18
2018-11-05T10:24:37.849Z,71.22
2018-11-05T10:27:06.299Z,71.18
2018-11-05T10:29:34.920Z,71.67
2018-11-05T10:32:03.638Z,70.91
2018-11-05T10:34:32.068Z,71.41
2018-11-05T10:37:00.810Z,71.77
2018-11-05T10:39:29.760Z,72.64
2018-11-05T10:41:58.243Z,71.75
2018-11-05T10:44:27.028Z,70.54
2018-11-05T10:46:55.385Z,69.36
2018-11-05T10:49:23.851Z,67.63
2018-11-05T10:51:53.190Z,68.45
2018-11-05T10:54:21.607Z,67.73
2018-11-05T10:56:50.173Z,66.27
2018-11-05T10:59:18.835Z,64.49
2018-11-05T11:01:53.083Z,62.44
2018-11-05T11:04:27.264Z,59.87
2018-11-05T11:06:55.768Z,58.45
2018-11-05T11:09:24.241Z,58.89
2018-11-05T11:11:53.564Z,59.53
2018-11-05T11:14:22.117Z,63.28
2018-11-05T11:16:50.756Z,62.23
2018-11-05T11:19:19.107Z,61.10
2018-11-05T11:21:48.026Z,61.12
2018-11-05T11:24:17.413Z,62.50
2018-11-05T11:26:46.101Z,63.75
2018-11-05T11:29:14.774Z,63.52
2018-11-05T11:31:43.500Z,64.31
2018-11-05T11:34:12.270Z,64.88
2018-11-05T11:36:41.027Z,64.05
2018-11-05T11:39:11.271Z,62.43
2018-11-05T11:41:40.065Z,63.03
2018-11-05T11:44:08.573Z,62.15
2018-11-05T11:48:58.767Z,60.80
2018-11-05T11:51:27.227Z,60.74
2018-11-05T11:53:56.504Z,60.01
2018-11-05T11:56:25.052Z,58.45
2018-11-05T11:58:53.771Z,57.90
2018-11-05T12:01:22.243Z,57.86
2018-11-05T12:03:50.696Z,58.81
2018-11-05T12:06:20.317Z,57.93
2018-11-05T12:08:49.060Z,59.04
2018-11-05T12:11:17.949Z,58.94
2018-11-05T12:13:46.430Z,59.04
2018-11-05T12:16:15.240Z,60.39
2018-11-05T12:18:44.728Z,59.57
2018-11-05T12:21:13.478Z,60.01
2018-11-05T12:23:42.659Z,60.40
2018-11-05T12:26:11.558Z,60.42
2018-11-05T12:28:40.290Z,58.46
2018-11-05T12:31:08.754Z,57.78
2018-11-05T12:33:37.251Z,54.62
2018-11-05T12:36:06.485Z,54.24
2018-11-05T12:38:35.139Z,54.22
2018-11-05T12:41:04.256Z,54.31
2018-11-05T12:43:32.713Z,54.03
2018-11-05T12:46:01.129Z,54.09
2018-11-05T12:48:29.595Z,54.65
2018-11-05T12:50:58.388Z,53.87
2018-11-05T12:53:27.130Z,55.07
2018-11-05T12:55:56.144Z,54.98
2018-11-05T12:58:24.879Z,54.46
2018-11-05T13:00:53.332Z,54.69
2018-11-05T13:03:22.041Z,55.27
2018-11-05T13:05:50.497Z,53.35
2018-11-05T13:08:19.077Z,44.29
2018-11-05T13:10:47.833Z,39.33
2018-11-05T13:13:16.192Z,35.00
2018-11-05T13:15:44.586Z,35.84
2018-11-05T13:18:13.026Z,35.83
2018-11-05T13:20:41.434Z,35.15
2018-11-05T13:23:10.124Z,31.96
2018-11-05T13:25:38.780Z,30.38
2018-11-05T13:28:07.425Z,28.88
2018-11-05T13:30:35.844Z,30.86
2018-11-05T13:33:04.498Z,34.61
2018-11-05T13:35:32.941Z,31.28
2018-11-05T13:38:01.923Z,29.56
2018-11-05T13:40:30.427Z,29.89
2018-11-05T13:42:58.981Z,31.00
2018-11-05T13:45:27.663Z,33.63
2018-11-05T13:47:56.797Z,32.22
2018-11-05T13:50:25.078Z,32.93
2018-11-05T13:52:53.364Z,28.39
2018-11-05T13:55:22.460Z,27.63
2018-11-05T13:57:51.085Z,32.56
2018-11-05T14:00:20.776Z,31.59
2018-11-05T14:02:49.896Z,34.02
2018-11-05T14:05:18.662Z,33.05
2018-11-05T14:07:47.562Z,29.00
2018-11-05T14:10:18.961Z,27.15
2018-11-05T14:12:47.960Z,28.99
2018-11-05T14:15:16.438Z,27.55
2018-11-05T14:17:45.469Z,28.42
2018-11-05T14:20:15.024Z,26.96
2018-11-05T14:22:43.655Z,26.85
2018-11-05T14:25:15.435Z,26.21
2018-11-05T14:27:45.584Z,26.75
2018-11-05T14:30:14.093Z,26.03
2018-11-05T14:32:44.782Z,26.66
2018-11-05T14:35:13.829Z,26.73
2018-11-05T14:37:42.931Z,24.99
2018-11-05T14:40:13.188Z,28.70
2018-11-05T14:42:41.728Z,27.44
2018-11-05T14:45:13.012Z,29.90
2018-11-05T14:47:42.664Z,25.77
2018-11-05T14:50:14.326Z,25.25
2018-11-05T14:52:43.182Z,26.49
2018-11-05T14:55:14.227Z,31.49
2018-11-05T14:57:43.460Z,35.63
2018-11-05T15:00:15.441Z,35.87
2018-11-05T15:02:44.614Z,37.01
2018-11-05T15:05:13.844Z,37.16
2018-11-05T15:07:43.343Z,31.84
2018-11-05T15:10:15.593Z,33.74
2018-11-05T15:12:44.581Z,37.66
2018-11-05T15:15:14.057Z,41.33
2018-11-05T15:17:44.446Z,45.13
2018-11-05T15:20:21.724Z,48.76
2018-11-05T15:22:52.464Z,51.99
2018-11-05T15:25:23.979Z,54.31
2018-11-05T15:27:55.871Z,55.31
2018-11-05T15:30:26.203Z,56.13
2018-11-05T15:32:57.125Z,58.60
2018-11-05T15:35:28.056Z,59.39
2018-11-05T15:37:59.095Z,60.08
2018-11-05T15:40:29.869Z,61.16
2018-11-05T15:43:00.588Z,62.52
2018-11-05T15:45:31.955Z,63.45
2018-11-05T15:48:02.978Z,64.46
2018-11-05T15:50:36.319Z,65.10
2018-11-05T15:53:22.534Z,66.67
2018-11-05T15:55:55.636Z,67.01
2018-11-05T15:58:26.150Z,69.90
2018-11-05T16:00:57.387Z,69.94
2018-11-05T16:03:28.390Z,71.10
2018-11-05T16:06:00.807Z,71.95
2018-11-05T16:08:35.082Z,71.72
2018-11-05T16:11:08.870Z,71.75
2018-11-05T16:13:43.113Z,71.55
2018-11-05T16:16:32.246Z,72.16
2018-11-05T16:19:13.033Z,72.88
2018-11-05T16:21:56.897Z,72.65
2018-11-05T16:24:43.613Z,73.82
2018-11-05T16:27:23.137Z,74.56
2018-11-05T16:29:55.429Z,76.80
2018-11-05T16:32:27.866Z,76.71
2018-11-05T16:35:01.497Z,77.12
2018-11-05T16:37:33.847Z,76.74
2018-11-05T16:40:06.617Z,76.57
2018-11-05T16:42:38.847Z,76.49
2018-11-05T16:45:10.757Z,77.42
2018-11-05T16:47:48.461Z,78.98
2018-11-05T16:50:25.034Z,78.23
2018-11-05T16:52:56.164Z,78.67
2018-11-05T16:55:27.792Z,78.45
2018-11-05T16:57:58.947Z,78.10
2018-11-05T17:00:30.107Z,78.59
2018-11-05T17:03:01.823Z,78.28
2018-11-05T17:05:34.455Z,78.38
2018-11-05T17:08:06.914Z,78.83
2018-11-05T17:10:38.255Z,79.09
2018-11-05T17:13:10.398Z,79.55
2018-11-05T17:15:49.136Z,80.17
2018-11-05T17:18:20.708Z,80.26
2018-11-05T17:20:51.935Z,80.40
2018-11-05T17:23:22.390Z,80.60
2018-11-05T17:25:57.862Z,80.68
2018-11-05T17:28:29.954Z,80.57
2018-11-05T17:31:01.459Z,80.71
2018-11-05T17:33:31.977Z,81.06
2018-11-05T17:36:04.088Z,81.47
2018-11-05T17:38:35.641Z,82.77
2018-11-05T17:41:08.621Z,83.64
2018-11-05T17:43:40.435Z,83.17
2018-11-05T17:46:11.932Z,82.93
2018-11-05T17:48:42.800Z,82.91
2018-11-05T17:51:21.784Z,82.72
2018-11-05T17:53:53.288Z,82.68
2018-11-05T17:56:24.637Z,83.99
2018-11-05T17:58:56.614Z,83.15
2018-11-05T18:01:29.829Z,83.68
2018-11-05T18:04:02.714Z,83.41
2018-11-05T18:06:35.429Z,84.07
2018-11-05T18:09:14.653Z,84.63
2018-11-05T18:11:46.989Z,84.01
2018-11-05T18:14:19.064Z,84.89
2018-11-05T18:16:50.930Z,85.71
2018-11-05T18:19:22.729Z,85.37
2018-11-05T18:21:53.645Z,84.25
2018-11-05T18:24:26.243Z,85.21
2018-11-05T18:30:50.506Z,86.21
2018-11-05T18:33:21.895Z,87.43
2018-11-05T18:35:53.407Z,86.67
2018-11-05T18:38:23.868Z,86.87
2018-11-05T18:40:55.359Z,85.68
2018-11-05T18:43:25.961Z,87.12
2018-11-05T18:45:56.275Z,87.59
2018-11-05T18:48:25.517Z,88.72
2018-11-05T18:50:56.911Z,88.53
2018-11-05T18:53:28.224Z,87.86
2018-11-05T18:55:59.380Z,87.59
2018-11-05T18:58:30.613Z,87.90
2018-11-05T19:01:01.820Z,88.51
2018-11-05T19:03:32.657Z,88.13
2018-11-05T19:06:04.045Z,88.91
2018-11-05T19:08:33.661Z,88.48
2018-11-05T19:11:02.560Z,88.00
2018-11-05T19:13:31.627Z,88.34
2018-11-05T19:16:01.341Z,89.14
2018-11-05T19:18:30.158Z,89.12
2018-11-05T19:20:58.949Z,88.11
2018-11-05T19:23:27.432Z,89.09
2018-11-05T19:25:55.940Z,89.12
2018-11-05T19:28:24.417Z,88.65
2018-11-05T19:30:52.839Z,89.23
2018-11-05T19:33:22.326Z,90.07
2018-11-05T19:35:51.612Z,90.50
2018-11-05T19:38:20.127Z,90.17
2018-11-05T19:40:48.642Z,91.09
2018-11-05T19:43:17.822Z,90.94
2018-11-05T19:45:46.284Z,91.31
2018-11-05T19:48:17.055Z,90.68
2018-11-05T19:50:45.524Z,89.79
2018-11-05T19:53:14.229Z,90.05
2018-11-05T19:55:43.818Z,89.76
2018-11-05T19:58:13.085Z,90.40
2018-11-05T20:00:42.123Z,90.79
2018-11-05T20:03:10.889Z,91.11
2018-11-05T20:05:39.522Z,91.43
2018-11-05T20:08:07.968Z,92.08
2018-11-05T20:10:36.536Z,93.06
2018-11-05T20:13:05.421Z,93.30
2018-11-05T20:15:34.205Z,90.66
2018-11-05T20:18:03.708Z,90.92
2018-11-05T20:20:32.478Z,92.31
2018-11-05T20:23:01.347Z,90.68
2018-11-05T20:25:29.787Z,90.93
2018-11-05T20:27:58.422Z,91.12
2018-11-05T20:30:27.739Z,91.29
2018-11-05T20:32:57.294Z,89.98
2018-11-05T20:35:25.678Z,90.38
2018-11-05T20:37:54.705Z,90.45
2018-11-05T20:40:23.599Z,90.21
2018-11-05T20:42:52.734Z,89.32
2018-11-05T20:45:22.264Z,89.04
2018-11-05T20:47:50.784Z,90.32
2018-11-05T20:50:19.317Z,90.52
2018-11-05T20:52:48.490Z,90.02
2018-11-05T20:55:20.269Z,90.39
2018-11-05T20:57:48.852Z,91.65
2018-11-05T21:00:19.226Z,91.02
2018-11-05T21:02:47.755Z,90.33
2018-11-05T21:05:16.253Z,90.46
2018-11-05T21:07:44.983Z,91.37
2018-11-05T21:10:14.294Z,92.03
2018-11-05T21:12:43.355Z,90.41
2018-11-05T21:15:23.707Z,90.66
2018-11-05T21:17:52.901Z,91.94
2018-11-05T21:20:21.336Z,91.03
2018-11-05T21:22:50.683Z,91.90
2018-11-05T21:25:19.915Z,91.40
2018-11-05T21:27:48.387Z,90.12
2018-11-05T21:30:19.196Z,91.29
2018-11-05T21:32:47.760Z,91.66
2018-11-05T21:35:17.653Z,91.93
2018-11-05T21:37:47.509Z,93.10
2018-11-05T21:40:17.444Z,91.74
2018-11-05T21:42:45.911Z,91.79
2018-11-05T21:45:15.326Z,91.42
2018-11-05T21:47:44.514Z,91.55
2018-11-05T21:50:14.812Z,92.37
2018-11-05T21:52:43.966Z,93.27
2018-11-05T21:55:12.651Z,92.54
2018-11-05T21:57:42.296Z,92.41
2018-11-05T22:00:18.075Z,91.62
2018-11-05T22:02:57.763Z,92.03
2018-11-05T22:05:26.228Z,92.60
2018-11-05T22:07:54.681Z,92.91
2018-11-05T22:10:23.755Z,92.37
2018-11-05T22:12:52.287Z,93.20
2018-11-05T22:15:20.976Z,92.79
2018-11-05T22:17:49.399Z,91.72
2018-11-05T22:20:17.813Z,93.11
2018-11-05T22:22:46.321Z,91.92
2018-11-05T22:25:14.846Z,92.45
2018-11-05T22:27:43.520Z,91.06
2018-11-05T22:30:12.792Z,92.18
2018-11-05T22:32:47.907Z,91.68
2018-11-05T22:35:16.351Z,91.07
2018-11-05T22:37:45.204Z,91.74
2018-11-05T22:40:14.504Z,91.42
2018-11-05T22:42:43.917Z,91.44
2018-11-05T22:45:14.186Z,91.97
2018-11-05T22:47:43.428Z,93.17
2018-11-05T22:50:11.965Z,93.46
2018-11-05T22:52:41.661Z,92.62
2018-11-05T22:55:11.594Z,93.62
2018-11-05T22:57:40.295Z,93.24
2018-11-05T23:01:17.689Z,93.25
2018-11-05T23:03:46.408Z,92.12
2018-11-05T23:06:14.915Z,92.88
2018-11-05T23:08:43.661Z,92.25
2018-11-05T23:11:13.253Z,91.73
2018-11-05T23:13:41.643Z,92.89
2018-11-05T23:16:10.308Z,91.86
2018-11-05T23:18:38.692Z,93.21
2018-11-05T23:21:07.402Z,92.60
2018-11-05T23:23:35.868Z,93.34
2018-11-05T23:26:05.167Z,92.47
2018-11-05T23:28:33.629Z,91.40
2018-11-05T23:31:01.964Z,92.53
2018-11-05T23:33:30.750Z,93.50
2018-11-05T23:35:59.132Z,93.71
2018-11-05T23:38:27.981Z,94.13
2018-11-05T23:40:56.497Z,93.07
2018-11-05T23:43:24.956Z,94.13
2018-11-05T23:45:53.504Z,93.45
2018-11-05T23:48:22.333Z,94.21
2018-11-05T23:50:51.035Z,93.75
2018-11-05T23:53:19.698Z,93.19
2018-11-05T23:55:48.786Z,94.63
2018-11-05T23:58:17.241Z,94.51
